sensor_id;sensor_type;location;lat;lon;timestamp;pressure;altitude;pressure_sealevel;temperature;humidity
48089;BME280;33867;50.314;7.802;2024-03-02T00:01:25;99102.22;;;4.69;76.73
48089;BME280;33867;50.314;7.802;2024-03-02T00:04:45;99105.56;;;4.52;78.72
48089;BME280;33867;50.314;7.802;2024-03-02T00:08:05;99105.41;;;4.53;79.55
48089;BME280;33867;50.314;7.802;2024-03-02T00:11:25;99107.03;;;4.94;74.55
48089;BME280;33867;50.314;7.802;2024-03-02T00:14:44;99114.88;;;4.77;75.74
48089;BME280;33867;50.314;7.802;2024-03-02T00:18:03;99117.69;;;4.75;75.81
48089;BME280;33867;50.314;7.802;2024-03-02T00:21:26;99113.19;;;4.85;74.50
48089;BME280;33867;50.314;7.802;2024-03-02T00:24:46;99115.59;;;4.88;74.51
48089;BME280;33867;50.314;7.802;2024-03-02T00:28:05;99111.78;;;4.81;75.77
48089;BME280;33867;50.314;7.802;2024-03-02T00:31:29;99095.66;;;4.92;76.02
48089;BME280;33867;50.314;7.802;2024-03-02T00:34:48;99104.38;;;4.94;76.15
48089;BME280;33867;50.314;7.802;2024-03-02T00:38:07;99101.28;;;5.18;74.07
48089;BME280;33867;50.314;7.802;2024-03-02T00:41:29;99088.53;;;5.22;73.62
48089;BME280;33867;50.314;7.802;2024-03-02T00:44:49;99100.59;;;5.45;73.02
48089;BME280;33867;50.314;7.802;2024-03-02T00:48:08;99092.72;;;5.05;75.61
48089;BME280;33867;50.314;7.802;2024-03-02T00:51:29;99092.31;;;5.10;76.83
48089;BME280;33867;50.314;7.802;2024-03-02T00:54:57;99086.69;;;5.22;77.14
48089;BME280;33867;50.314;7.802;2024-03-02T00:58:16;99084.84;;;5.42;74.84
48089;BME280;33867;50.314;7.802;2024-03-02T01:01:35;99076.13;;;5.60;72.48
48089;BME280;33867;50.314;7.802;2024-03-02T01:04:54;99080.63;;;5.69;71.74
48089;BME280;33867;50.314;7.802;2024-03-02T01:08:13;99079.50;;;5.52;74.82
48089;BME280;33867;50.314;7.802;2024-03-02T01:11:32;99077.69;;;5.43;73.40
48089;BME280;33867;50.314;7.802;2024-03-02T01:14:51;99074.88;;;5.44;73.57
48089;BME280;33867;50.314;7.802;2024-03-02T01:18:10;99082.06;;;5.34;71.57
48089;BME280;33867;50.314;7.802;2024-03-02T01:21:29;99078.25;;;5.27;72.23
48089;BME280;33867;50.314;7.802;2024-03-02T01:24:48;99077.28;;;5.09;73.52
48089;BME280;33867;50.314;7.802;2024-03-02T01:28:08;99068.81;;;4.65;76.63
48089;BME280;33867;50.314;7.802;2024-03-02T01:31:27;99065.44;;;4.53;78.23
48089;BME280;33867;50.314;7.802;2024-03-02T01:34:46;99064.84;;;4.50;78.30
48089;BME280;33867;50.314;7.802;2024-03-02T01:38:05;99058.69;;;4.59;78.10
48089;BME280;33867;50.314;7.802;2024-03-02T01:41:25;99073.91;;;4.78;75.32
48089;BME280;33867;50.314;7.802;2024-03-02T01:44:44;99058.69;;;4.59;76.66
48089;BME280;33867;50.314;7.802;2024-03-02T01:48:06;99066.84;;;4.57;76.84
48089;BME280;33867;50.314;7.802;2024-03-02T01:51:25;99057.06;;;4.77;74.14
48089;BME280;33867;50.314;7.802;2024-03-02T01:54:44;99055.06;;;4.69;74.40
48089;BME280;33867;50.314;7.802;2024-03-02T01:58:03;99056.47;;;4.54;74.51
48089;BME280;33867;50.314;7.802;2024-03-02T02:01:22;99057.00;;;4.48;75.29
48089;BME280;33867;50.314;7.802;2024-03-02T02:04:42;99059.47;;;4.30;79.14
48089;BME280;33867;50.314;7.802;2024-03-02T02:08:01;99054.06;;;4.61;75.41
48089;BME280;33867;50.314;7.802;2024-03-02T02:11:20;99058.34;;;4.33;76.61
48089;BME280;33867;50.314;7.802;2024-03-02T02:14:47;99060.00;;;4.15;78.46
48089;BME280;33867;50.314;7.802;2024-03-02T02:18:06;99049.69;;;4.40;75.88
48089;BME280;33867;50.314;7.802;2024-03-02T02:21:25;99052.50;;;4.49;77.04
48089;BME280;33867;50.314;7.802;2024-03-02T02:24:45;99046.41;;;4.18;80.38
48089;BME280;33867;50.314;7.802;2024-03-02T02:28:04;99041.81;;;4.29;79.58
48089;BME280;33867;50.314;7.802;2024-03-02T02:31:23;99032.34;;;4.65;75.78
48089;BME280;33867;50.314;7.802;2024-03-02T02:34:42;99042.75;;;4.78;74.21
48089;BME280;33867;50.314;7.802;2024-03-02T02:38:02;99033.59;;;4.71;76.15
48089;BME280;33867;50.314;7.802;2024-03-02T02:41:22;99026.31;;;4.63;74.42
48089;BME280;33867;50.314;7.802;2024-03-02T02:44:41;99026.03;;;4.95;73.66
48089;BME280;33867;50.314;7.802;2024-03-02T02:48:00;99024.50;;;4.93;73.68
48089;BME280;33867;50.314;7.802;2024-03-02T02:51:20;99025.72;;;4.50;77.50
48089;BME280;33867;50.314;7.802;2024-03-02T02:54:39;99021.25;;;4.70;73.99
48089;BME280;33867;50.314;7.802;2024-03-02T02:57:58;99020.41;;;4.60;74.75
48089;BME280;33867;50.314;7.802;2024-03-02T03:01:17;99013.19;;;4.31;76.92
48089;BME280;33867;50.314;7.802;2024-03-02T03:04:36;99011.41;;;4.42;75.30
48089;BME280;33867;50.314;7.802;2024-03-02T03:07:58;99015.03;;;4.31;76.87
48089;BME280;33867;50.314;7.802;2024-03-02T03:11:17;99013.81;;;4.54;76.38
48089;BME280;33867;50.314;7.802;2024-03-02T03:14:36;99016.47;;;3.95;80.01
48089;BME280;33867;50.314;7.802;2024-03-02T03:17:55;99007.59;;;4.34;77.67
48089;BME280;33867;50.314;7.802;2024-03-02T03:21:14;99007.34;;;4.57;76.08
48089;BME280;33867;50.314;7.802;2024-03-02T03:24:33;99013.84;;;4.74;73.99
48089;BME280;33867;50.314;7.802;2024-03-02T03:27:52;99010.16;;;4.65;74.90
48089;BME280;33867;50.314;7.802;2024-03-02T03:31:11;99003.94;;;4.35;77.62
48089;BME280;33867;50.314;7.802;2024-03-02T03:34:34;98998.38;;;4.58;74.30
48089;BME280;33867;50.314;7.802;2024-03-02T03:37:53;99005.25;;;4.01;78.38
48089;BME280;33867;50.314;7.802;2024-03-02T03:41:12;99014.94;;;4.02;79.17
48089;BME280;33867;50.314;7.802;2024-03-02T03:44:31;99006.44;;;4.18;78.37
48089;BME280;33867;50.314;7.802;2024-03-02T03:47:50;99003.31;;;4.03;79.77
48089;BME280;33867;50.314;7.802;2024-03-02T03:51:09;99010.81;;;4.28;76.16
48089;BME280;33867;50.314;7.802;2024-03-02T03:54:28;99017.94;;;4.18;75.36
48089;BME280;33867;50.314;7.802;2024-03-02T03:57:47;99018.41;;;3.93;77.82
48089;BME280;33867;50.314;7.802;2024-03-02T04:01:06;99018.16;;;3.96;78.07
48089;BME280;33867;50.314;7.802;2024-03-02T04:04:26;99007.22;;;3.99;76.00
48089;BME280;33867;50.314;7.802;2024-03-02T04:07:45;99017.84;;;3.38;80.67
48089;BME280;33867;50.314;7.802;2024-03-02T04:11:04;99013.00;;;3.73;77.92
48089;BME280;33867;50.314;7.802;2024-03-02T04:14:23;99013.63;;;3.56;78.66
48089;BME280;33867;50.314;7.802;2024-03-02T04:17:42;99002.81;;;3.27;81.42
48089;BME280;33867;50.314;7.802;2024-03-02T04:21:01;99016.38;;;3.45;77.87
48089;BME280;33867;50.314;7.802;2024-03-02T04:24:20;99025.84;;;3.38;79.03
48089;BME280;33867;50.314;7.802;2024-03-02T04:27:39;99020.31;;;3.50;78.09
48089;BME280;33867;50.314;7.802;2024-03-02T04:30:58;99022.25;;;3.69;76.20
48089;BME280;33867;50.314;7.802;2024-03-02T04:34:17;99026.88;;;3.46;77.34
48089;BME280;33867;50.314;7.802;2024-03-02T04:37:37;99032.13;;;3.37;77.70
48089;BME280;33867;50.314;7.802;2024-03-02T04:40:56;99029.66;;;3.45;77.70
48089;BME280;33867;50.314;7.802;2024-03-02T04:44:15;99028.94;;;3.43;76.85
48089;BME280;33867;50.314;7.802;2024-03-02T04:47:34;99041.59;;;3.30;77.54
48089;BME280;33867;50.314;7.802;2024-03-02T04:50:53;99041.88;;;3.27;77.91
48089;BME280;33867;50.314;7.802;2024-03-02T04:54:12;99040.44;;;3.22;78.11
48089;BME280;33867;50.314;7.802;2024-03-02T04:57:33;99038.50;;;3.25;77.69
48089;BME280;33867;50.314;7.802;2024-03-02T05:00:52;99049.84;;;3.47;76.94
48089;BME280;33867;50.314;7.802;2024-03-02T05:04:11;99058.09;;;3.23;82.34
48089;BME280;33867;50.314;7.802;2024-03-02T05:07:30;99060.41;;;3.38;80.79
48089;BME280;33867;50.314;7.802;2024-03-02T05:10:49;99063.38;;;3.65;79.20
48089;BME280;33867;50.314;7.802;2024-03-02T05:14:08;99062.97;;;3.91;77.18
48089;BME280;33867;50.314;7.802;2024-03-02T05:17:27;99065.81;;;3.99;77.22
48089;BME280;33867;50.314;7.802;2024-03-02T05:20:46;99072.34;;;4.16;75.81
48089;BME280;33867;50.314;7.802;2024-03-02T05:24:06;99062.28;;;3.98;78.61
48089;BME280;33867;50.314;7.802;2024-03-02T05:27:26;99066.34;;;3.93;79.73
48089;BME280;33867;50.314;7.802;2024-03-02T05:30:45;99072.91;;;4.19;76.31
48089;BME280;33867;50.314;7.802;2024-03-02T05:34:06;99079.78;;;4.22;75.73
48089;BME280;33867;50.314;7.802;2024-03-02T05:37:25;99086.94;;;4.21;76.63
48089;BME280;33867;50.314;7.802;2024-03-02T05:40:44;99090.66;;;4.39;74.68
48089;BME280;33867;50.314;7.802;2024-03-02T05:44:03;99085.31;;;4.39;74.99
48089;BME280;33867;50.314;7.802;2024-03-02T05:47:22;99079.00;;;4.40;75.68
48089;BME280;33867;50.314;7.802;2024-03-02T05:50:41;99076.09;;;4.53;74.69
48089;BME280;33867;50.314;7.802;2024-03-02T05:54:00;99076.09;;;4.53;75.14
48089;BME280;33867;50.314;7.802;2024-03-02T05:57:20;99084.09;;;4.53;74.61
48089;BME280;33867;50.314;7.802;2024-03-02T06:00:58;99084.75;;;4.46;74.08
48089;BME280;33867;50.314;7.802;2024-03-02T06:04:18;99086.66;;;4.24;75.20
48089;BME280;33867;50.314;7.802;2024-03-02T06:07:37;99083.84;;;4.16;75.68
48089;BME280;33867;50.314;7.802;2024-03-02T06:10:56;99087.72;;;4.12;75.20
48089;BME280;33867;50.314;7.802;2024-03-02T06:14:16;99099.44;;;4.00;75.00
48089;BME280;33867;50.314;7.802;2024-03-02T06:17:35;99098.53;;;3.90;75.72
48089;BME280;33867;50.314;7.802;2024-03-02T06:20:54;99104.69;;;3.80;77.23
48089;BME280;33867;50.314;7.802;2024-03-02T06:24:13;99111.22;;;3.97;76.14
48089;BME280;33867;50.314;7.802;2024-03-02T06:27:32;99096.97;;;4.08;74.65
48089;BME280;33867;50.314;7.802;2024-03-02T06:30:51;99110.28;;;4.08;74.91
48089;BME280;33867;50.314;7.802;2024-03-02T06:34:10;99105.81;;;3.88;77.42
48089;BME280;33867;50.314;7.802;2024-03-02T06:37:29;99107.84;;;3.95;77.79
48089;BME280;33867;50.314;7.802;2024-03-02T06:40:49;99116.09;;;4.23;77.26
48089;BME280;33867;50.314;7.802;2024-03-02T06:44:08;99119.53;;;4.44;75.80
48089;BME280;33867;50.314;7.802;2024-03-02T06:47:27;99121.44;;;4.73;74.50
48089;BME280;33867;50.314;7.802;2024-03-02T06:50:47;99108.13;;;4.82;74.88
48089;BME280;33867;50.314;7.802;2024-03-02T06:54:06;99112.81;;;4.99;74.11
48089;BME280;33867;50.314;7.802;2024-03-02T06:57:25;99112.94;;;5.08;73.01
48089;BME280;33867;50.314;7.802;2024-03-02T07:00:44;99119.41;;;5.05;73.45
48089;BME280;33867;50.314;7.802;2024-03-02T07:04:04;99117.16;;;5.20;73.41
48089;BME280;33867;50.314;7.802;2024-03-02T07:07:25;99121.66;;;5.29;73.23
48089;BME280;33867;50.314;7.802;2024-03-02T07:10:44;99123.09;;;5.33;74.12
48089;BME280;33867;50.314;7.802;2024-03-02T07:14:03;99131.22;;;5.41;73.81
48089;BME280;33867;50.314;7.802;2024-03-02T07:17:22;99123.63;;;5.37;74.09
48089;BME280;33867;50.314;7.802;2024-03-02T07:20:41;99128.53;;;5.51;74.01
48089;BME280;33867;50.314;7.802;2024-03-02T07:24:00;99128.41;;;5.62;74.59
48089;BME280;33867;50.314;7.802;2024-03-02T07:27:23;99128.53;;;5.61;73.88
48089;BME280;33867;50.314;7.802;2024-03-02T07:30:42;99130.91;;;5.54;75.12
48089;BME280;33867;50.314;7.802;2024-03-02T07:34:01;99134.13;;;5.86;73.54
48089;BME280;33867;50.314;7.802;2024-03-02T07:37:20;99126.78;;;6.18;72.73
48089;BME280;33867;50.314;7.802;2024-03-02T07:40:40;99129.91;;;6.40;72.35
48089;BME280;33867;50.314;7.802;2024-03-02T07:43:59;99132.72;;;6.39;72.37
48089;BME280;33867;50.314;7.802;2024-03-02T07:47:18;99138.28;;;6.55;72.19
48089;BME280;33867;50.314;7.802;2024-03-02T07:50:37;99138.19;;;6.74;71.05
48089;BME280;33867;50.314;7.802;2024-03-02T07:53:57;99136.75;;;6.80;71.07
48089;BME280;33867;50.314;7.802;2024-03-02T07:57:16;99128.31;;;7.02;71.09
48089;BME280;33867;50.314;7.802;2024-03-02T08:00:36;99143.59;;;7.10;70.73
48089;BME280;33867;50.314;7.802;2024-03-02T08:03:59;99146.28;;;7.10;70.60
48089;BME280;33867;50.314;7.802;2024-03-02T08:07:19;99152.28;;;6.94;70.66
48089;BME280;33867;50.314;7.802;2024-03-02T08:10:38;99149.25;;;6.89;71.23
48089;BME280;33867;50.314;7.802;2024-03-02T08:13:57;99151.16;;;6.69;72.16
48089;BME280;33867;50.314;7.802;2024-03-02T08:17:16;99148.03;;;6.47;73.44
48089;BME280;33867;50.314;7.802;2024-03-02T08:20:35;99141.25;;;6.80;73.21
48089;BME280;33867;50.314;7.802;2024-03-02T08:23:55;99145.25;;;7.39;71.17
48089;BME280;33867;50.314;7.802;2024-03-02T08:27:14;99155.25;;;7.72;69.57
48089;BME280;33867;50.314;7.802;2024-03-02T08:30:33;99143.91;;;7.07;72.24
48089;BME280;33867;50.314;7.802;2024-03-02T08:33:52;99139.72;;;7.22;73.05
48089;BME280;33867;50.314;7.802;2024-03-02T08:37:12;99138.63;;;7.69;71.59
48089;BME280;33867;50.314;7.802;2024-03-02T08:40:31;99131.81;;;7.56;72.41
48089;BME280;33867;50.314;7.802;2024-03-02T08:43:50;99131.19;;;7.80;71.88
48089;BME280;33867;50.314;7.802;2024-03-02T08:47:12;99141.72;;;8.00;71.84
48089;BME280;33867;50.314;7.802;2024-03-02T08:50:31;99132.47;;;8.46;70.42
48089;BME280;33867;50.314;7.802;2024-03-02T08:53:50;99133.00;;;8.49;70.29
48089;BME280;33867;50.314;7.802;2024-03-02T08:57:10;99136.69;;;8.91;69.74
48089;BME280;33867;50.314;7.802;2024-03-02T09:00:29;99139.72;;;8.96;69.87
48089;BME280;33867;50.314;7.802;2024-03-02T09:03:48;99126.88;;;9.24;68.88
48089;BME280;33867;50.314;7.802;2024-03-02T09:07:10;99141.19;;;9.49;67.13
48089;BME280;33867;50.314;7.802;2024-03-02T09:10:30;99132.97;;;9.66;64.04
48089;BME280;33867;50.314;7.802;2024-03-02T09:13:48;99126.19;;;10.28;63.57
48089;BME280;33867;50.314;7.802;2024-03-02T09:17:08;99119.88;;;10.60;62.76
48089;BME280;33867;50.314;7.802;2024-03-02T09:20:29;99115.06;;;10.47;60.87
48089;BME280;33867;50.314;7.802;2024-03-02T09:23:48;99113.09;;;10.72;61.17
48089;BME280;33867;50.314;7.802;2024-03-02T09:27:08;99121.69;;;11.37;60.19
48089;BME280;33867;50.314;7.802;2024-03-02T09:30:27;99126.63;;;10.95;58.53
48089;BME280;33867;50.314;7.802;2024-03-02T09:33:46;99114.44;;;11.61;58.68
48089;BME280;33867;50.314;7.802;2024-03-02T09:37:06;99111.31;;;11.72;56.37
48089;BME280;33867;50.314;7.802;2024-03-02T09:40:25;99104.72;;;11.97;58.38
48089;BME280;33867;50.314;7.802;2024-03-02T09:43:44;99106.16;;;11.85;55.98
48089;BME280;33867;50.314;7.802;2024-03-02T09:47:03;99111.13;;;11.96;57.48
48089;BME280;33867;50.314;7.802;2024-03-02T09:50:22;99097.28;;;11.77;56.33
48089;BME280;33867;50.314;7.802;2024-03-02T09:53:41;99105.41;;;11.91;55.43
48089;BME280;33867;50.314;7.802;2024-03-02T09:57:00;99105.19;;;11.78;55.58
48089;BME280;33867;50.314;7.802;2024-03-02T10:00:20;99089.66;;;12.47;56.87
48089;BME280;33867;50.314;7.802;2024-03-02T10:03:39;99077.56;;;12.43;54.69
48089;BME280;33867;50.314;7.802;2024-03-02T10:10:38;99080.66;;;12.55;54.68
48089;BME280;33867;50.314;7.802;2024-03-02T10:14:10;99074.66;;;13.10;53.33
48089;BME280;33867;50.314;7.802;2024-03-02T10:17:31;99076.97;;;13.13;54.39
48089;BME280;33867;50.314;7.802;2024-03-02T10:20:50;99057.47;;;12.97;53.27
48089;BME280;33867;50.314;7.802;2024-03-02T10:24:11;99072.22;;;12.79;52.77
48089;BME280;33867;50.314;7.802;2024-03-02T10:27:34;99071.59;;;13.78;55.42
48089;BME280;33867;50.314;7.802;2024-03-02T10:30:53;99074.25;;;14.27;54.65
48089;BME280;33867;50.314;7.802;2024-03-02T10:34:13;99061.50;;;14.21;49.39
48089;BME280;33867;50.314;7.802;2024-03-02T10:37:32;99068.56;;;14.98;51.14
48089;BME280;33867;50.314;7.802;2024-03-02T10:40:52;99051.00;;;15.88;47.08
48089;BME280;33867;50.314;7.802;2024-03-02T10:44:14;99063.84;;;16.45;48.49
48089;BME280;33867;50.314;7.802;2024-03-02T10:47:36;99056.00;;;15.84;44.99
48089;BME280;33867;50.314;7.802;2024-03-02T10:50:56;99055.25;;;15.09;46.93
48089;BME280;33867;50.314;7.802;2024-03-02T10:54:17;99054.66;;;14.59;47.57
48089;BME280;33867;50.314;7.802;2024-03-02T10:57:54;99063.84;;;14.65;48.25
48089;BME280;33867;50.314;7.802;2024-03-02T11:01:15;99063.84;;;14.65;48.38
48089;BME280;33867;50.314;7.802;2024-03-02T11:04:35;99062.75;;;15.01;48.37
48089;BME280;33867;50.314;7.802;2024-03-02T11:08:01;99056.06;;;14.49;47.02
48089;BME280;33867;50.314;7.802;2024-03-02T11:11:24;99067.47;;;15.60;46.20
48089;BME280;33867;50.314;7.802;2024-03-02T11:14:46;99081.53;;;15.09;47.64
48089;BME280;33867;50.314;7.802;2024-03-02T11:18:06;99074.25;;;16.75;46.22
48089;BME280;33867;50.314;7.802;2024-03-02T11:21:27;99067.38;;;17.17;43.26
48089;BME280;33867;50.314;7.802;2024-03-02T11:24:52;99056.66;;;15.99;43.38
48089;BME280;33867;50.314;7.802;2024-03-02T11:28:11;99044.41;;;17.44;44.73
48089;BME280;33867;50.314;7.802;2024-03-02T11:31:58;99046.38;;;19.22;41.88
48089;BME280;33867;50.314;7.802;2024-03-02T11:35:18;99040.59;;;16.62;42.58
48089;BME280;33867;50.314;7.802;2024-03-02T11:38:37;99034.25;;;17.58;43.40
48089;BME280;33867;50.314;7.802;2024-03-02T11:42:00;99031.16;;;16.85;43.41
48089;BME280;33867;50.314;7.802;2024-03-02T11:45:27;99038.63;;;17.59;43.56
48089;BME280;33867;50.314;7.802;2024-03-02T11:48:47;99024.75;;;18.54;42.21
48089;BME280;33867;50.314;7.802;2024-03-02T11:52:07;99025.03;;;17.28;41.74
48089;BME280;33867;50.314;7.802;2024-03-02T11:55:28;99015.88;;;16.84;41.91
48089;BME280;33867;50.314;7.802;2024-03-02T11:58:49;99019.16;;;18.12;42.05
48089;BME280;33867;50.314;7.802;2024-03-02T12:02:17;99010.06;;;17.43;43.14
48089;BME280;33867;50.314;7.802;2024-03-02T12:05:36;99000.72;;;17.89;40.83
48089;BME280;33867;50.314;7.802;2024-03-02T12:08:56;98990.25;;;18.48;40.35
48089;BME280;33867;50.314;7.802;2024-03-02T12:12:15;99000.34;;;16.91;41.52
48089;BME280;33867;50.314;7.802;2024-03-02T12:15:39;98991.56;;;16.95;41.69
48089;BME280;33867;50.314;7.802;2024-03-02T12:19:01;98980.59;;;17.65;42.15
48089;BME280;33867;50.314;7.802;2024-03-02T12:22:21;98994.47;;;17.32;40.25
48089;BME280;33867;50.314;7.802;2024-03-02T12:25:40;98976.25;;;17.33;41.39
48089;BME280;33867;50.314;7.802;2024-03-02T12:28:59;98973.28;;;18.94;42.29
48089;BME280;33867;50.314;7.802;2024-03-02T12:32:19;98974.41;;;18.01;39.19
48089;BME280;33867;50.314;7.802;2024-03-02T12:35:38;98970.41;;;18.59;40.54
48089;BME280;33867;50.314;7.802;2024-03-02T12:38:58;98965.72;;;19.49;38.66
48089;BME280;33867;50.314;7.802;2024-03-02T12:42:17;98968.59;;;17.48;40.31
48089;BME280;33867;50.314;7.802;2024-03-02T12:45:36;98961.19;;;16.60;41.22
48089;BME280;33867;50.314;7.802;2024-03-02T12:48:56;98964.75;;;18.90;42.25
48089;BME280;33867;50.314;7.802;2024-03-02T12:52:15;98976.63;;;18.66;38.33
48089;BME280;33867;50.314;7.802;2024-03-02T12:55:35;98972.47;;;17.59;40.70
48089;BME280;33867;50.314;7.802;2024-03-02T12:58:55;98966.50;;;16.87;42.18
48089;BME280;33867;50.314;7.802;2024-03-02T13:02:17;98959.94;;;17.82;41.58
48089;BME280;33867;50.314;7.802;2024-03-02T13:05:37;98961.38;;;17.04;41.01
48089;BME280;33867;50.314;7.802;2024-03-02T13:08:58;98962.72;;;16.94;41.66
48089;BME280;33867;50.314;7.802;2024-03-02T13:12:18;98952.13;;;17.11;42.11
48089;BME280;33867;50.314;7.802;2024-03-02T13:15:37;98941.34;;;16.98;43.76
48089;BME280;33867;50.314;7.802;2024-03-02T13:18:56;98947.47;;;16.42;41.48
48089;BME280;33867;50.314;7.802;2024-03-02T13:22:15;98943.97;;;17.36;42.33
48089;BME280;33867;50.314;7.802;2024-03-02T13:25:34;98940.22;;;18.05;42.17
48089;BME280;33867;50.314;7.802;2024-03-02T13:28:53;98931.03;;;17.81;40.75
48089;BME280;33867;50.314;7.802;2024-03-02T13:32:14;98926.47;;;17.25;42.17
48089;BME280;33867;50.314;7.802;2024-03-02T13:35:33;98934.66;;;15.98;42.66
48089;BME280;33867;50.314;7.802;2024-03-02T13:38:52;98924.56;;;16.25;42.42
48089;BME280;33867;50.314;7.802;2024-03-02T13:42:13;98918.16;;;16.06;43.31
48089;BME280;33867;50.314;7.802;2024-03-02T13:45:34;98921.59;;;15.55;44.29
48089;BME280;33867;50.314;7.802;2024-03-02T13:48:54;98930.78;;;15.41;45.31
48089;BME280;33867;50.314;7.802;2024-03-02T13:52:17;98931.78;;;15.73;43.80
48089;BME280;33867;50.314;7.802;2024-03-02T13:55:37;98933.38;;;16.14;44.13
48089;BME280;33867;50.314;7.802;2024-03-02T13:58:56;98930.44;;;16.15;43.37
48089;BME280;33867;50.314;7.802;2024-03-02T14:02:15;98926.91;;;16.59;43.63
48089;BME280;33867;50.314;7.802;2024-03-02T14:05:35;98922.91;;;17.32;41.04
48089;BME280;33867;50.314;7.802;2024-03-02T14:08:55;98917.50;;;16.62;42.13
48089;BME280;33867;50.314;7.802;2024-03-02T14:12:15;98917.34;;;16.88;41.62
48089;BME280;33867;50.314;7.802;2024-03-02T14:15:34;98914.00;;;16.93;40.61
48089;BME280;33867;50.314;7.802;2024-03-02T14:18:57;98913.56;;;16.58;41.40
48089;BME280;33867;50.314;7.802;2024-03-02T14:22:17;98907.91;;;16.59;41.38
48089;BME280;33867;50.314;7.802;2024-03-02T14:25:51;98911.78;;;17.08;42.30
48089;BME280;33867;50.314;7.802;2024-03-02T14:29:14;98902.25;;;16.16;40.92
48089;BME280;33867;50.314;7.802;2024-03-02T14:32:32;98899.78;;;16.01;41.62
48089;BME280;33867;50.314;7.802;2024-03-02T14:35:52;98904.88;;;16.36;41.43
48089;BME280;33867;50.314;7.802;2024-03-02T14:39:11;98896.38;;;16.71;41.25
48089;BME280;33867;50.314;7.802;2024-03-02T14:42:30;98894.66;;;17.51;39.75
48089;BME280;33867;50.314;7.802;2024-03-02T14:45:50;98887.31;;;17.51;40.24
48089;BME280;33867;50.314;7.802;2024-03-02T14:49:10;98889.94;;;17.40;40.86
48089;BME280;33867;50.314;7.802;2024-03-02T14:52:29;98876.53;;;17.63;39.76
48089;BME280;33867;50.314;7.802;2024-03-02T14:55:48;98881.97;;;17.45;39.77
48089;BME280;33867;50.314;7.802;2024-03-02T14:59:08;98874.53;;;16.84;41.60
48089;BME280;33867;50.314;7.802;2024-03-02T15:02:29;98866.63;;;16.76;41.37
48089;BME280;33867;50.314;7.802;2024-03-02T15:05:48;98860.97;;;16.39;41.21
48089;BME280;33867;50.314;7.802;2024-03-02T15:09:10;98860.47;;;16.17;42.75
48089;BME280;33867;50.314;7.802;2024-03-02T15:12:31;98864.88;;;16.12;42.74
48089;BME280;33867;50.314;7.802;2024-03-02T15:15:50;98860.28;;;15.28;42.60
48089;BME280;33867;50.314;7.802;2024-03-02T15:19:10;98857.53;;;15.47;44.64
48089;BME280;33867;50.314;7.802;2024-03-02T15:22:30;98845.88;;;15.20;43.56
48089;BME280;33867;50.314;7.802;2024-03-02T15:25:49;98843.81;;;14.89;45.61
48089;BME280;33867;50.314;7.802;2024-03-02T15:29:08;98847.16;;;14.85;44.90
48089;BME280;33867;50.314;7.802;2024-03-02T15:32:27;98844.66;;;14.97;44.28
48089;BME280;33867;50.314;7.802;2024-03-02T15:35:46;98850.28;;;14.75;44.46
48089;BME280;33867;50.314;7.802;2024-03-02T15:39:06;98855.47;;;14.57;46.07
48089;BME280;33867;50.314;7.802;2024-03-02T15:42:27;98839.59;;;14.54;46.50
48089;BME280;33867;50.314;7.802;2024-03-02T15:45:46;98831.72;;;14.59;47.04
48089;BME280;33867;50.314;7.802;2024-03-02T15:49:06;98840.06;;;14.57;46.96
48089;BME280;33867;50.314;7.802;2024-03-02T15:52:26;98822.47;;;14.40;47.00
48089;BME280;33867;50.314;7.802;2024-03-02T15:55:46;98823.72;;;14.38;46.93
48089;BME280;33867;50.314;7.802;2024-03-02T15:59:05;98826.59;;;14.16;46.59
48089;BME280;33867;50.314;7.802;2024-03-02T16:02:24;98807.28;;;14.39;46.09
48089;BME280;33867;50.314;7.802;2024-03-02T16:05:43;98821.38;;;14.15;46.05
48089;BME280;33867;50.314;7.802;2024-03-02T16:09:08;98821.28;;;14.49;46.38
48089;BME280;33867;50.314;7.802;2024-03-02T16:12:36;98821.09;;;14.64;46.72
48089;BME280;33867;50.314;7.802;2024-03-02T16:16:01;98825.66;;;14.63;46.10
48089;BME280;33867;50.314;7.802;2024-03-02T16:19:21;98821.22;;;14.43;46.21
48089;BME280;33867;50.314;7.802;2024-03-02T16:22:41;98817.00;;;14.14;47.14
48089;BME280;33867;50.314;7.802;2024-03-02T16:26:00;98816.84;;;14.35;46.93
48089;BME280;33867;50.314;7.802;2024-03-02T16:29:20;98827.84;;;14.14;47.34
48089;BME280;33867;50.314;7.802;2024-03-02T16:32:40;98826.59;;;14.16;47.66
48089;BME280;33867;50.314;7.802;2024-03-02T16:36:25;98830.97;;;14.11;47.89
48089;BME280;33867;50.314;7.802;2024-03-02T16:40:02;98837.44;;;14.23;47.58
48089;BME280;33867;50.314;7.802;2024-03-02T16:43:46;98828.84;;;14.06;47.93
48089;BME280;33867;50.314;7.802;2024-03-02T16:47:17;98828.59;;;13.88;48.62
48089;BME280;33867;50.314;7.802;2024-03-02T16:51:03;98820.63;;;13.80;48.65
48089;BME280;33867;50.314;7.802;2024-03-02T16:54:23;98820.56;;;13.66;49.36
48089;BME280;33867;50.314;7.802;2024-03-02T16:57:43;98826.34;;;13.50;49.72
48089;BME280;33867;50.314;7.802;2024-03-02T17:01:02;98824.25;;;13.52;49.70
48089;BME280;33867;50.314;7.802;2024-03-02T17:04:23;98828.03;;;13.23;50.19
48089;BME280;33867;50.314;7.802;2024-03-02T17:07:45;98821.56;;;13.59;49.73
48089;BME280;33867;50.314;7.802;2024-03-02T17:15:29;98840.00;;;13.42;50.62
48089;BME280;33867;50.314;7.802;2024-03-02T17:18:50;98844.28;;;13.30;50.71
48089;BME280;33867;50.314;7.802;2024-03-02T17:22:31;98850.25;;;13.53;50.39
48089;BME280;33867;50.314;7.802;2024-03-02T17:25:51;98855.81;;;13.45;51.06
48089;BME280;33867;50.314;7.802;2024-03-02T17:29:12;98852.28;;;13.16;51.41
48089;BME280;33867;50.314;7.802;2024-03-02T17:32:31;98853.44;;;13.29;51.42
48089;BME280;33867;50.314;7.802;2024-03-02T17:35:52;98852.47;;;13.43;50.97
48089;BME280;33867;50.314;7.802;2024-03-02T17:39:13;98858.47;;;13.10;53.10
48089;BME280;33867;50.314;7.802;2024-03-02T17:43:33;98854.22;;;13.01;53.54
48089;BME280;33867;50.314;7.802;2024-03-02T17:47:04;98865.44;;;12.98;53.17
48089;BME280;33867;50.314;7.802;2024-03-02T17:50:25;98854.63;;;12.98;52.77
48089;BME280;33867;50.314;7.802;2024-03-02T17:53:47;98850.56;;;13.09;53.48
48089;BME280;33867;50.314;7.802;2024-03-02T17:57:11;98858.06;;;12.85;53.21